sensor_id;sensor_type;location;lat;lon;timestamp;P1;durP1;ratioP1;P2;durP2;ratioP2
49223;SDS011;35050;51.316;5.994;2023-04-01T00:01:37;4.18;;;1.58;;
49223;SDS011;35050;51.316;5.994;2023-04-01T00:04:03;1.38;;;0.80;;
49223;SDS011;35050;51.316;5.994;2023-04-01T00:06:29;2.92;;;1.00;;
49223;SDS011;35050;51.316;5.994;2023-04-01T00:08:55;2.17;;;0.80;;
49223;SDS011;35050;51.316;5.994;2023-04-01T00:11:21;2.47;;;0.75;;
49223;SDS011;35050;51.316;5.994;2023-04-01T00:13:47;1.70;;;0.93;;
49223;SDS011;35050;51.316;5.994;2023-04-01T00:16:13;2.35;;;0.80;;
49223;SDS011;35050;51.316;5.994;2023-04-01T00:18:38;5.85;;;1.10;;
49223;SDS011;35050;51.316;5.994;2023-04-01T00:21:04;1.77;;;0.70;;
49223;SDS011;35050;51.316;5.994;2023-04-01T00:23:31;2.20;;;1.08;;
49223;SDS011;35050;51.316;5.994;2023-04-01T00:25:58;2.95;;;0.85;;
49223;SDS011;35050;51.316;5.994;2023-04-01T00:28:26;2.67;;;1.05;;
49223;SDS011;35050;51.316;5.994;2023-04-01T00:30:52;2.47;;;0.75;;
49223;SDS011;35050;51.316;5.994;2023-04-01T00:33:17;2.20;;;0.88;;
49223;SDS011;35050;51.316;5.994;2023-04-01T00:35:43;4.53;;;0.88;;
49223;SDS011;35050;51.316;5.994;2023-04-01T00:38:09;2.25;;;0.82;;
49223;SDS011;35050;51.316;5.994;2023-04-01T00:40:40;1.73;;;0.85;;
49223;SDS011;35050;51.316;5.994;2023-04-01T00:43:18;2.67;;;0.57;;
49223;SDS011;35050;51.316;5.994;2023-04-01T00:45:46;3.20;;;1.00;;
49223;SDS011;35050;51.316;5.994;2023-04-01T00:51:08;1.75;;;0.80;;
49223;SDS011;35050;51.316;5.994;2023-04-01T00:53:36;2.22;;;0.85;;
49223;SDS011;35050;51.316;5.994;2023-04-01T00:56:07;2.45;;;0.80;;
49223;SDS011;35050;51.316;5.994;2023-04-01T00:58:38;2.65;;;0.80;;
49223;SDS011;35050;51.316;5.994;2023-04-01T01:01:08;1.70;;;0.70;;
49223;SDS011;35050;51.316;5.994;2023-04-01T01:03:34;0.90;;;0.63;;
49223;SDS011;35050;51.316;5.994;2023-04-01T01:06:11;1.70;;;0.55;;
49223;SDS011;35050;51.316;5.994;2023-04-01T01:11:19;2.83;;;0.60;;
49223;SDS011;35050;51.316;5.994;2023-04-01T01:13:58;0.93;;;0.40;;
49223;SDS011;35050;51.316;5.994;2023-04-01T01:16:51;0.68;;;0.47;;
49223;SDS011;35050;51.316;5.994;2023-04-01T01:22:11;1.17;;;0.75;;
49223;SDS011;35050;51.316;5.994;2023-04-01T01:24:52;2.25;;;0.40;;
49223;SDS011;35050;51.316;5.994;2023-04-01T01:27:20;1.60;;;0.43;;
49223;SDS011;35050;51.316;5.994;2023-04-01T01:37:37;3.85;;;0.95;;
49223;SDS011;35050;51.316;5.994;2023-04-01T01:40:06;2.40;;;1.23;;
49223;SDS011;35050;51.316;5.994;2023-04-01T01:42:34;2.30;;;0.73;;
49223;SDS011;35050;51.316;5.994;2023-04-01T01:45:03;1.38;;;0.65;;
49223;SDS011;35050;51.316;5.994;2023-04-01T01:47:30;1.30;;;0.63;;
49223;SDS011;35050;51.316;5.994;2023-04-01T01:49:58;0.47;;;0.40;;
49223;SDS011;35050;51.316;5.994;2023-04-01T01:52:27;0.45;;;0.38;;
49223;SDS011;35050;51.316;5.994;2023-04-01T01:54:54;0.47;;;0.40;;
49223;SDS011;35050;51.316;5.994;2023-04-01T01:57:25;2.45;;;0.60;;
49223;SDS011;35050;51.316;5.994;2023-04-01T01:59:59;1.30;;;0.60;;
49223;SDS011;35050;51.316;5.994;2023-04-01T02:02:39;1.65;;;0.60;;
49223;SDS011;35050;51.316;5.994;2023-04-01T02:05:08;1.90;;;0.55;;
49223;SDS011;35050;51.316;5.994;2023-04-01T02:07:36;1.15;;;0.70;;
49223;SDS011;35050;51.316;5.994;2023-04-01T02:10:04;1.20;;;0.50;;
49223;SDS011;35050;51.316;5.994;2023-04-01T02:12:31;0.45;;;0.40;;
49223;SDS011;35050;51.316;5.994;2023-04-01T02:15:01;1.75;;;0.50;;
49223;SDS011;35050;51.316;5.994;2023-04-01T02:17:32;1.42;;;0.70;;
49223;SDS011;35050;51.316;5.994;2023-04-01T02:20:01;1.30;;;0.47;;
49223;SDS011;35050;51.316;5.994;2023-04-01T02:22:44;1.80;;;0.50;;
49223;SDS011;35050;51.316;5.994;2023-04-01T02:25:15;0.85;;;0.52;;
49223;SDS011;35050;51.316;5.994;2023-04-01T02:27:45;1.52;;;0.60;;
49223;SDS011;35050;51.316;5.994;2023-04-01T02:30:12;1.02;;;0.60;;
49223;SDS011;35050;51.316;5.994;2023-04-01T02:32:39;0.73;;;0.52;;
49223;SDS011;35050;51.316;5.994;2023-04-01T02:35:10;1.38;;;0.70;;
49223;SDS011;35050;51.316;5.994;2023-04-01T02:37:38;1.70;;;0.80;;
49223;SDS011;35050;51.316;5.994;2023-04-01T02:40:08;0.80;;;0.60;;
49223;SDS011;35050;51.316;5.994;2023-04-01T02:42:38;1.48;;;0.98;;
49223;SDS011;35050;51.316;5.994;2023-04-01T02:45:05;1.23;;;0.90;;
49223;SDS011;35050;51.316;5.994;2023-04-01T02:47:31;0.93;;;0.85;;
49223;SDS011;35050;51.316;5.994;2023-04-01T02:49:57;1.58;;;0.57;;
49223;SDS011;35050;51.316;5.994;2023-04-01T02:52:26;0.93;;;0.70;;
49223;SDS011;35050;51.316;5.994;2023-04-01T02:54:53;1.63;;;0.90;;
49223;SDS011;35050;51.316;5.994;2023-04-01T02:57:19;1.88;;;0.90;;
49223;SDS011;35050;51.316;5.994;2023-04-01T02:59:45;2.58;;;1.63;;
49223;SDS011;35050;51.316;5.994;2023-04-01T03:02:11;1.02;;;0.77;;
49223;SDS011;35050;51.316;5.994;2023-04-01T03:04:37;2.00;;;1.30;;
49223;SDS011;35050;51.316;5.994;2023-04-01T03:07:03;1.27;;;0.50;;
49223;SDS011;35050;51.316;5.994;2023-04-01T03:09:29;1.20;;;0.80;;
49223;SDS011;35050;51.316;5.994;2023-04-01T03:11:55;1.38;;;0.85;;
49223;SDS011;35050;51.316;5.994;2023-04-01T03:14:21;1.85;;;0.90;;
49223;SDS011;35050;51.316;5.994;2023-04-01T03:16:46;0.60;;;0.60;;
49223;SDS011;35050;51.316;5.994;2023-04-01T03:19:12;1.02;;;0.65;;
49223;SDS011;35050;51.316;5.994;2023-04-01T03:21:38;2.03;;;1.30;;
49223;SDS011;35050;51.316;5.994;2023-04-01T03:24:05;1.30;;;0.73;;
49223;SDS011;35050;51.316;5.994;2023-04-01T03:26:31;1.73;;;0.90;;
49223;SDS011;35050;51.316;5.994;2023-04-01T03:28:57;0.95;;;0.85;;
49223;SDS011;35050;51.316;5.994;2023-04-01T03:31:23;1.63;;;1.23;;
49223;SDS011;35050;51.316;5.994;2023-04-01T03:33:49;1.05;;;1.00;;
49223;SDS011;35050;51.316;5.994;2023-04-01T03:36:15;1.35;;;1.00;;
49223;SDS011;35050;51.316;5.994;2023-04-01T03:38:41;1.30;;;1.13;;
49223;SDS011;35050;51.316;5.994;2023-04-01T03:41:11;1.35;;;1.20;;
49223;SDS011;35050;51.316;5.994;2023-04-01T03:43:38;1.20;;;1.10;;
49223;SDS011;35050;51.316;5.994;2023-04-01T03:46:04;2.10;;;1.15;;
49223;SDS011;35050;51.316;5.994;2023-04-01T03:48:29;2.42;;;1.42;;
49223;SDS011;35050;51.316;5.994;2023-04-01T03:50:55;1.48;;;1.20;;
49223;SDS011;35050;51.316;5.994;2023-04-01T03:53:21;1.85;;;1.20;;
49223;SDS011;35050;51.316;5.994;2023-04-01T03:55:47;1.10;;;1.00;;
49223;SDS011;35050;51.316;5.994;2023-04-01T03:58:13;1.92;;;1.27;;
49223;SDS011;35050;51.316;5.994;2023-04-01T04:00:39;1.55;;;1.23;;
49223;SDS011;35050;51.316;5.994;2023-04-01T04:03:05;1.10;;;0.95;;
49223;SDS011;35050;51.316;5.994;2023-04-01T04:05:31;2.25;;;1.10;;
49223;SDS011;35050;51.316;5.994;2023-04-01T04:07:57;2.00;;;1.15;;
49223;SDS011;35050;51.316;5.994;2023-04-01T04:10:22;1.48;;;1.30;;
49223;SDS011;35050;51.316;5.994;2023-04-01T04:12:49;1.73;;;1.48;;
49223;SDS011;35050;51.316;5.994;2023-04-01T04:15:15;1.73;;;1.63;;
49223;SDS011;35050;51.316;5.994;2023-04-01T04:17:41;3.42;;;1.10;;
49223;SDS011;35050;51.316;5.994;2023-04-01T04:20:07;1.10;;;1.08;;
49223;SDS011;35050;51.316;5.994;2023-04-01T04:22:33;1.23;;;1.00;;
49223;SDS011;35050;51.316;5.994;2023-04-01T04:24:59;1.40;;;1.30;;
49223;SDS011;35050;51.316;5.994;2023-04-01T04:27:25;2.05;;;1.60;;
49223;SDS011;35050;51.316;5.994;2023-04-01T04:29:50;2.15;;;1.95;;
49223;SDS011;35050;51.316;5.994;2023-04-01T04:32:16;2.05;;;1.70;;
49223;SDS011;35050;51.316;5.994;2023-04-01T04:34:42;1.70;;;1.60;;
49223;SDS011;35050;51.316;5.994;2023-04-01T04:37:07;2.10;;;1.90;;
49223;SDS011;35050;51.316;5.994;2023-04-01T04:39:33;2.10;;;1.70;;
49223;SDS011;35050;51.316;5.994;2023-04-01T04:41:59;1.80;;;1.70;;
49223;SDS011;35050;51.316;5.994;2023-04-01T04:44:25;1.73;;;1.50;;
49223;SDS011;35050;51.316;5.994;2023-04-01T04:46:50;1.80;;;1.70;;
49223;SDS011;35050;51.316;5.994;2023-04-01T04:49:16;3.15;;;1.88;;
49223;SDS011;35050;51.316;5.994;2023-04-01T04:51:42;2.25;;;2.00;;
49223;SDS011;35050;51.316;5.994;2023-04-01T04:54:07;3.13;;;2.40;;
49223;SDS011;35050;51.316;5.994;2023-04-01T04:56:33;2.80;;;2.60;;
49223;SDS011;35050;51.316;5.994;2023-04-01T04:59:00;2.72;;;2.53;;
49223;SDS011;35050;51.316;5.994;2023-04-01T05:01:26;3.05;;;2.70;;
49223;SDS011;35050;51.316;5.994;2023-04-01T05:03:52;3.25;;;2.80;;
49223;SDS011;35050;51.316;5.994;2023-04-01T05:06:19;2.97;;;2.70;;
49223;SDS011;35050;51.316;5.994;2023-04-01T05:08:45;2.90;;;2.70;;
49223;SDS011;35050;51.316;5.994;2023-04-01T05:11:15;3.08;;;2.85;;
49223;SDS011;35050;51.316;5.994;2023-04-01T05:13:42;3.78;;;3.47;;
49223;SDS011;35050;51.316;5.994;2023-04-01T05:16:09;3.33;;;3.03;;
49223;SDS011;35050;51.316;5.994;2023-04-01T05:18:36;3.78;;;3.47;;
49223;SDS011;35050;51.316;5.994;2023-04-01T05:21:01;3.80;;;2.92;;
49223;SDS011;35050;51.316;5.994;2023-04-01T05:23:27;3.70;;;3.40;;
49223;SDS011;35050;51.316;5.994;2023-04-01T05:25:53;3.72;;;3.42;;
49223;SDS011;35050;51.316;5.994;2023-04-01T05:28:19;4.30;;;3.97;;
49223;SDS011;35050;51.316;5.994;2023-04-01T05:30:45;3.42;;;3.22;;
49223;SDS011;35050;51.316;5.994;2023-04-01T05:33:11;4.60;;;4.20;;
49223;SDS011;35050;51.316;5.994;2023-04-01T05:35:38;3.80;;;3.50;;
49223;SDS011;35050;51.316;5.994;2023-04-01T05:38:05;4.20;;;3.80;;
49223;SDS011;35050;51.316;5.994;2023-04-01T05:40:31;3.85;;;3.40;;
49223;SDS011;35050;51.316;5.994;2023-04-01T05:42:57;4.13;;;3.83;;
49223;SDS011;35050;51.316;5.994;2023-04-01T05:45:24;4.07;;;3.78;;
49223;SDS011;35050;51.316;5.994;2023-04-01T05:47:50;3.90;;;3.60;;
49223;SDS011;35050;51.316;5.994;2023-04-01T05:50:16;3.85;;;3.55;;
49223;SDS011;35050;51.316;5.994;2023-04-01T05:52:42;4.35;;;4.00;;
49223;SDS011;35050;51.316;5.994;2023-04-01T05:55:08;4.60;;;4.20;;
49223;SDS011;35050;51.316;5.994;2023-04-01T05:57:33;3.85;;;3.55;;
49223;SDS011;35050;51.316;5.994;2023-04-01T05:59:59;3.90;;;3.60;;
49223;SDS011;35050;51.316;5.994;2023-04-01T06:02:25;4.28;;;3.92;;
49223;SDS011;35050;51.316;5.994;2023-04-01T06:04:53;4.00;;;3.70;;
49223;SDS011;35050;51.316;5.994;2023-04-01T06:07:28;4.00;;;3.70;;
49223;SDS011;35050;51.316;5.994;2023-04-01T06:09:54;3.42;;;3.20;;
49223;SDS011;35050;51.316;5.994;2023-04-01T06:12:33;3.33;;;3.13;;
49223;SDS011;35050;51.316;5.994;2023-04-01T06:25:51;2.78;;;2.58;;
49223;SDS011;35050;51.316;5.994;2023-04-01T06:34:00;4.30;;;2.35;;
49223;SDS011;35050;51.316;5.994;2023-04-01T06:37:11;1.90;;;1.80;;
49223;SDS011;35050;51.316;5.994;2023-04-01T06:47:50;1.95;;;1.77;;
49223;SDS011;35050;51.316;5.994;2023-04-01T06:54:21;1.70;;;1.60;;
49223;SDS011;35050;51.316;5.994;2023-04-01T06:56:20;1.70;;;1.60;;
49223;SDS011;35050;51.316;5.994;2023-04-01T07:01:19;2.13;;;1.80;;
49223;SDS011;35050;51.316;5.994;2023-04-01T07:09:30;2.05;;;1.73;;
49223;SDS011;35050;51.316;5.994;2023-04-01T07:14:30;2.38;;;2.17;;
49223;SDS011;35050;51.316;5.994;2023-04-01T07:17:17;1.98;;;1.73;;
49223;SDS011;35050;51.316;5.994;2023-04-01T07:22:38;1.80;;;1.70;;
49223;SDS011;35050;51.316;5.994;2023-04-01T07:25:11;1.83;;;1.73;;
49223;SDS011;35050;51.316;5.994;2023-04-01T07:27:42;1.95;;;1.80;;
49223;SDS011;35050;51.316;5.994;2023-04-01T07:32:48;1.95;;;1.85;;
49223;SDS011;35050;51.316;5.994;2023-04-01T07:36:03;1.85;;;1.75;;
49223;SDS011;35050;51.316;5.994;2023-04-01T07:54:22;2.30;;;2.10;;
49223;SDS011;35050;51.316;5.994;2023-04-01T07:57:51;2.50;;;2.30;;
49223;SDS011;35050;51.316;5.994;2023-04-01T08:00:13;3.40;;;3.10;;
49223;SDS011;35050;51.316;5.994;2023-04-01T08:05:35;3.00;;;2.80;;
49223;SDS011;35050;51.316;5.994;2023-04-01T08:13:50;4.97;;;4.43;;
49223;SDS011;35050;51.316;5.994;2023-04-01T08:16:32;4.72;;;4.22;;
49223;SDS011;35050;51.316;5.994;2023-04-01T08:22:20;5.20;;;4.68;;
49223;SDS011;35050;51.316;5.994;2023-04-01T08:24:52;5.57;;;4.85;;
49223;SDS011;35050;51.316;5.994;2023-04-01T08:27:33;6.68;;;5.13;;
49223;SDS011;35050;51.316;5.994;2023-04-01T08:30:25;7.03;;;5.63;;
49223;SDS011;35050;51.316;5.994;2023-04-01T08:33:10;4.75;;;4.35;;
49223;SDS011;35050;51.316;5.994;2023-04-01T08:35:46;6.38;;;5.78;;
49223;SDS011;35050;51.316;5.994;2023-04-01T08:38:32;6.90;;;6.00;;
49223;SDS011;35050;51.316;5.994;2023-04-01T09:13:36;10.60;;;7.88;;
49223;SDS011;35050;51.316;5.994;2023-04-01T09:16:16;8.85;;;7.72;;
49223;SDS011;35050;51.316;5.994;2023-04-01T09:21:51;7.22;;;6.28;;
49223;SDS011;35050;51.316;5.994;2023-04-01T09:27:33;7.75;;;6.95;;
49223;SDS011;35050;51.316;5.994;2023-04-01T09:44:33;7.18;;;5.47;;
49223;SDS011;35050;51.316;5.994;2023-04-01T10:02:08;5.88;;;5.20;;
49223;SDS011;35050;51.316;5.994;2023-04-01T10:11:09;5.60;;;4.55;;
49223;SDS011;35050;51.316;5.994;2023-04-01T10:27:54;6.55;;;4.65;;
49223;SDS011;35050;51.316;5.994;2023-04-01T10:38:48;5.07;;;4.57;;
49223;SDS011;35050;51.316;5.994;2023-04-01T10:47:08;5.32;;;4.68;;
49223;SDS011;35050;51.316;5.994;2023-04-01T10:52:37;5.85;;;4.38;;
49223;SDS011;35050;51.316;5.994;2023-04-01T10:57:58;4.63;;;4.05;;
49223;SDS011;35050;51.316;5.994;2023-04-01T11:09:05;5.15;;;4.50;;
49223;SDS011;35050;51.316;5.994;2023-04-01T11:30:29;6.68;;;4.88;;
49223;SDS011;35050;51.316;5.994;2023-04-01T11:33:26;6.88;;;4.63;;
49223;SDS011;35050;51.316;5.994;2023-04-01T11:36:15;6.85;;;4.90;;
49223;SDS011;35050;51.316;5.994;2023-04-01T11:52:21;3.95;;;3.53;;
49223;SDS011;35050;51.316;5.994;2023-04-01T12:18:15;3.67;;;3.00;;
49223;SDS011;35050;51.316;5.994;2023-04-01T12:29:09;2.85;;;2.55;;
49223;SDS011;35050;51.316;5.994;2023-04-01T12:45:30;2.90;;;2.60;;
49223;SDS011;35050;51.316;5.994;2023-04-01T12:56:41;2.28;;;2.08;;
49223;SDS011;35050;51.316;5.994;2023-04-01T12:59:22;2.60;;;2.40;;
49223;SDS011;35050;51.316;5.994;2023-04-01T13:04:51;3.42;;;2.97;;
49223;SDS011;35050;51.316;5.994;2023-04-01T13:15:31;3.60;;;3.22;;
49223;SDS011;35050;51.316;5.994;2023-04-01T13:18:14;2.53;;;2.33;;
49223;SDS011;35050;51.316;5.994;2023-04-01T13:23:37;2.30;;;2.10;;
49223;SDS011;35050;51.316;5.994;2023-04-01T13:26:29;2.30;;;2.10;;
49223;SDS011;35050;51.316;5.994;2023-04-01T13:29:14;2.63;;;1.65;;
49223;SDS011;35050;51.316;5.994;2023-04-01T13:39:57;2.50;;;1.60;;
49223;SDS011;35050;51.316;5.994;2023-04-01T13:42:47;1.70;;;1.60;;
49223;SDS011;35050;51.316;5.994;2023-04-01T13:45:19;1.48;;;1.38;;
49223;SDS011;35050;51.316;5.994;2023-04-01T14:10:28;2.53;;;2.30;;
49223;SDS011;35050;51.316;5.994;2023-04-01T14:18:33;2.63;;;2.42;;
49223;SDS011;35050;51.316;5.994;2023-04-01T14:43:20;3.13;;;2.80;;
49223;SDS011;35050;51.316;5.994;2023-04-01T14:46:11;3.20;;;2.92;;
49223;SDS011;35050;51.316;5.994;2023-04-01T14:49:05;2.38;;;2.20;;
49223;SDS011;35050;51.316;5.994;2023-04-01T14:51:45;2.65;;;2.45;;
49223;SDS011;35050;51.316;5.994;2023-04-01T14:56:47;2.70;;;2.50;;
49223;SDS011;35050;51.316;5.994;2023-04-01T15:09:25;2.30;;;2.08;;
49223;SDS011;35050;51.316;5.994;2023-04-01T15:34:05;2.63;;;2.20;;
49223;SDS011;35050;51.316;5.994;2023-04-01T15:36:28;2.30;;;2.10;;
49223;SDS011;35050;51.316;5.994;2023-04-01T15:44:43;2.53;;;2.00;;
49223;SDS011;35050;51.316;5.994;2023-04-01T15:52:24;1.98;;;1.77;;
49223;SDS011;35050;51.316;5.994;2023-04-01T15:57:52;2.10;;;1.88;;
49223;SDS011;35050;51.316;5.994;2023-04-01T16:00:31;1.95;;;1.80;;
49223;SDS011;35050;51.316;5.994;2023-04-01T16:03:33;1.60;;;1.50;;
49223;SDS011;35050;51.316;5.994;2023-04-01T16:11:57;1.83;;;1.60;;
49223;SDS011;35050;51.316;5.994;2023-04-01T16:22:35;1.50;;;1.40;;
49223;SDS011;35050;51.316;5.994;2023-04-01T16:30:48;1.30;;;1.20;;
49223;SDS011;35050;51.316;5.994;2023-04-01T16:41:00;1.67;;;1.10;;
49223;SDS011;35050;51.316;5.994;2023-04-01T16:43:35;2.22;;;1.20;;
49223;SDS011;35050;51.316;5.994;2023-04-01T16:56:47;1.30;;;1.20;;
49223;SDS011;35050;51.316;5.994;2023-04-01T16:59:29;1.35;;;1.25;;
49223;SDS011;35050;51.316;5.994;2023-04-01T17:04:33;1.20;;;1.10;;
49223;SDS011;35050;51.316;5.994;2023-04-01T17:09:49;1.92;;;1.30;;
49223;SDS011;35050;51.316;5.994;2023-04-01T17:12:23;1.45;;;1.35;;
49223;SDS011;35050;51.316;5.994;2023-04-01T17:23:14;1.52;;;1.30;;
49223;SDS011;35050;51.316;5.994;2023-04-01T17:25:49;1.50;;;1.40;;
49223;SDS011;35050;51.316;5.994;2023-04-01T17:31:37;1.60;;;1.45;;
49223;SDS011;35050;51.316;5.994;2023-04-01T17:34:41;1.35;;;1.25;;
49223;SDS011;35050;51.316;5.994;2023-04-01T17:37:37;2.22;;;1.38;;
49223;SDS011;35050;51.316;5.994;2023-04-01T17:59:35;1.40;;;1.30;;
49223;SDS011;35050;51.316;5.994;2023-04-01T18:02:33;1.42;;;1.33;;
49223;SDS011;35050;51.316;5.994;2023-04-01T18:10:41;1.20;;;1.10;;
49223;SDS011;35050;51.316;5.994;2023-04-01T18:21:56;1.52;;;1.42;;
49223;SDS011;35050;51.316;5.994;2023-04-01T18:24:40;1.88;;;1.77;;
49223;SDS011;35050;51.316;5.994;2023-04-01T18:29:48;1.90;;;1.80;;
49223;SDS011;35050;51.316;5.994;2023-04-01T18:38:19;2.28;;;2.08;;
49223;SDS011;35050;51.316;5.994;2023-04-01T18:41:10;2.00;;;1.90;;
49223;SDS011;35050;51.316;5.994;2023-04-01T18:46:55;1.42;;;1.33;;
49223;SDS011;35050;51.316;5.994;2023-04-01T18:52:31;1.58;;;1.40;;
49223;SDS011;35050;51.316;5.994;2023-04-01T19:03:06;1.83;;;1.60;;
49223;SDS011;35050;51.316;5.994;2023-04-01T19:05:47;1.90;;;1.80;;
49223;SDS011;35050;51.316;5.994;2023-04-01T19:11:10;2.33;;;2.13;;
49223;SDS011;35050;51.316;5.994;2023-04-01T19:14:05;3.28;;;2.65;;
49223;SDS011;35050;51.316;5.994;2023-04-01T19:27:42;2.67;;;2.47;;
49223;SDS011;35050;51.316;5.994;2023-04-01T19:46:48;2.30;;;2.10;;
49223;SDS011;35050;51.316;5.994;2023-04-01T19:57:17;2.70;;;2.50;;
49223;SDS011;35050;51.316;5.994;2023-04-01T19:59:51;2.63;;;2.42;;
49223;SDS011;35050;51.316;5.994;2023-04-01T20:05:50;2.58;;;2.38;;
49223;SDS011;35050;51.316;5.994;2023-04-01T20:16:18;2.60;;;2.40;;
49223;SDS011;35050;51.316;5.994;2023-04-01T20:26:39;3.10;;;2.90;;
49223;SDS011;35050;51.316;5.994;2023-04-01T20:37:30;2.67;;;2.47;;
49223;SDS011;35050;51.316;5.994;2023-04-01T20:45:34;2.85;;;2.65;;
49223;SDS011;35050;51.316;5.994;2023-04-01T20:51:04;3.85;;;2.65;;
49223;SDS011;35050;51.316;5.994;2023-04-01T20:54:05;3.50;;;3.22;;
49223;SDS011;35050;51.316;5.994;2023-04-01T20:57:11;4.03;;;3.73;;
49223;SDS011;35050;51.316;5.994;2023-04-01T20:59:45;3.15;;;2.88;;
49223;SDS011;35050;51.316;5.994;2023-04-01T21:07:49;2.65;;;2.45;;
49223;SDS011;35050;51.316;5.994;2023-04-01T21:10:40;3.28;;;3.00;;
49223;SDS011;35050;51.316;5.994;2023-04-01T21:19:20;2.50;;;2.30;;
49223;SDS011;35050;51.316;5.994;2023-04-01T21:29:58;2.85;;;2.65;;
49223;SDS011;35050;51.316;5.994;2023-04-01T21:44:36;2.60;;;2.13;;
49223;SDS011;35050;51.316;5.994;2023-04-01T22:01:04;1.67;;;1.58;;
49223;SDS011;35050;51.316;5.994;2023-04-01T22:04:17;2.05;;;1.95;;
49223;SDS011;35050;51.316;5.994;2023-04-01T22:06:43;2.10;;;1.90;;
49223;SDS011;35050;51.316;5.994;2023-04-01T22:09:25;1.70;;;1.60;;
49223;SDS011;35050;51.316;5.994;2023-04-01T22:14:44;1.95;;;1.85;;
49223;SDS011;35050;51.316;5.994;2023-04-01T22:25:35;1.83;;;1.60;;
49223;SDS011;35050;51.316;5.994;2023-04-01T22:28:04;1.65;;;1.55;;
49223;SDS011;35050;51.316;5.994;2023-04-01T22:30:48;1.85;;;1.75;;
49223;SDS011;35050;51.316;5.994;2023-04-01T22:38:51;2.03;;;1.92;;
49223;SDS011;35050;51.316;5.994;2023-04-01T22:44:09;1.95;;;1.85;;
49223;SDS011;35050;51.316;5.994;2023-04-01T22:50:18;2.35;;;2.20;;
49223;SDS011;35050;51.316;5.994;2023-04-01T22:52:46;2.20;;;2.00;;
49223;SDS011;35050;51.316;5.994;2023-04-01T22:55:24;2.20;;;1.98;;
49223;SDS011;35050;51.316;5.994;2023-04-01T22:58:35;2.40;;;2.10;;
49223;SDS011;35050;51.316;5.994;2023-04-01T23:00:56;2.40;;;2.20;;
49223;SDS011;35050;51.316;5.994;2023-04-01T23:03:36;2.47;;;2.28;;
49223;SDS011;35050;51.316;5.994;2023-04-01T23:06:06;2.15;;;2.05;;
49223;SDS011;35050;51.316;5.994;2023-04-01T23:11:49;2.58;;;2.38;;
49223;SDS011;35050;51.316;5.994;2023-04-01T23:14:41;2.15;;;2.00;;
49223;SDS011;35050;51.316;5.994;2023-04-01T23:20:03;2.05;;;1.95;;
49223;SDS011;35050;51.316;5.994;2023-04-01T23:22:49;2.55;;;2.35;;
49223;SDS011;35050;51.316;5.994;2023-04-01T23:35:48;3.10;;;2.60;;
49223;SDS011;35050;51.316;5.994;2023-04-01T23:38:24;2.90;;;2.70;;
49223;SDS011;35050;51.316;5.994;2023-04-01T23:40:51;2.55;;;2.35;;
49223;SDS011;35050;51.316;5.994;2023-04-01T23:43:32;4.03;;;2.53;;
49223;SDS011;35050;51.316;5.994;2023-04-01T23:46:01;2.60;;;2.40;;
49223;SDS011;35050;51.316;5.994;2023-04-01T23:48:32;1.88;;;1.77;;
49223;SDS011;35050;51.316;5.994;2023-04-01T23:51:01;2.22;;;2.10;;
49223;SDS011;35050;51.316;5.994;2023-04-01T23:53:30;2.90;;;2.70;;
49223;SDS011;35050;51.316;5.994;2023-04-01T23:55:58;2.83;;;2.63;;
49223;SDS011;35050;51.316;5.994;2023-04-01T23:58:27;2.65;;;2.45;;
